sensor_id;sensor_type;location;lat;lon;timestamp;P1;durP1;ratioP1;P2;durP2;ratioP2
36787;SDS011;22738;45.560;9.434;2022-08-01T00:06:09;5.00;;;2.30;;
36787;SDS011;22738;45.560;9.434;2022-08-01T00:12:50;3.80;;;2.63;;
36787;SDS011;22738;45.560;9.434;2022-08-01T00:19:31;7.57;;;3.08;;
36787;SDS011;22738;45.560;9.434;2022-08-01T00:26:13;7.95;;;2.67;;
36787;SDS011;22738;45.560;9.434;2022-08-01T00:32:54;4.43;;;2.58;;
36787;SDS011;22738;45.560;9.434;2022-08-01T00:39:35;5.43;;;2.35;;
36787;SDS011;22738;45.560;9.434;2022-08-01T00:46:16;3.20;;;2.00;;
36787;SDS011;22738;45.560;9.434;2022-08-01T00:52:58;3.20;;;2.47;;
36787;SDS011;22738;45.560;9.434;2022-08-01T00:59:39;4.88;;;2.15;;
36787;SDS011;22738;45.560;9.434;2022-08-01T01:13:18;4.75;;;2.55;;
36787;SDS011;22738;45.560;9.434;2022-08-01T01:20:04;3.15;;;2.40;;
36787;SDS011;22738;45.560;9.434;2022-08-01T01:40:23;4.75;;;2.45;;
36787;SDS011;22738;45.560;9.434;2022-08-01T01:47:07;5.00;;;2.63;;
36787;SDS011;22738;45.560;9.434;2022-08-01T01:53:49;6.05;;;2.75;;
36787;SDS011;22738;45.560;9.434;2022-08-01T02:00:33;4.32;;;2.47;;
36787;SDS011;22738;45.560;9.434;2022-08-01T02:07:17;5.20;;;2.35;;
36787;SDS011;22738;45.560;9.434;2022-08-01T02:14:03;5.53;;;2.38;;
36787;SDS011;22738;45.560;9.434;2022-08-01T02:20:47;4.13;;;2.38;;
36787;SDS011;22738;45.560;9.434;2022-08-01T02:27:46;3.05;;;2.28;;
36787;SDS011;22738;45.560;9.434;2022-08-01T02:34:51;5.78;;;2.60;;
36787;SDS011;22738;45.560;9.434;2022-08-01T02:41:57;4.15;;;2.15;;
36787;SDS011;22738;45.560;9.434;2022-08-01T02:48:45;3.70;;;2.67;;
36787;SDS011;22738;45.560;9.434;2022-08-01T02:55:28;4.22;;;2.90;;
36787;SDS011;22738;45.560;9.434;2022-08-01T03:02:11;5.18;;;2.55;;
36787;SDS011;22738;45.560;9.434;2022-08-01T03:08:53;3.45;;;2.40;;
36787;SDS011;22738;45.560;9.434;2022-08-01T03:15:37;3.10;;;2.40;;
36787;SDS011;22738;45.560;9.434;2022-08-01T03:29:06;5.03;;;2.97;;
36787;SDS011;22738;45.560;9.434;2022-08-01T03:35:53;3.22;;;2.60;;
36787;SDS011;22738;45.560;9.434;2022-08-01T03:42:41;2.97;;;2.37;;
36787;SDS011;22738;45.560;9.434;2022-08-01T03:49:32;4.55;;;2.40;;
36787;SDS011;22738;45.560;9.434;2022-08-01T03:56:16;5.93;;;2.20;;
36787;SDS011;22738;45.560;9.434;2022-08-01T04:03:00;4.63;;;2.35;;
36787;SDS011;22738;45.560;9.434;2022-08-01T04:09:41;3.05;;;2.08;;
36787;SDS011;22738;45.560;9.434;2022-08-01T04:16:23;5.15;;;2.03;;
36787;SDS011;22738;45.560;9.434;2022-08-01T04:23:04;4.40;;;2.50;;
36787;SDS011;22738;45.560;9.434;2022-08-01T04:29:51;5.22;;;2.20;;
36787;SDS011;22738;45.560;9.434;2022-08-01T04:36:36;4.25;;;2.22;;
36787;SDS011;22738;45.560;9.434;2022-08-01T04:43:22;4.47;;;2.20;;
36787;SDS011;22738;45.560;9.434;2022-08-01T04:50:04;3.53;;;1.95;;
36787;SDS011;22738;45.560;9.434;2022-08-01T04:56:47;4.03;;;2.00;;
36787;SDS011;22738;45.560;9.434;2022-08-01T05:03:28;4.15;;;2.20;;
36787;SDS011;22738;45.560;9.434;2022-08-01T05:10:09;3.78;;;2.03;;
36787;SDS011;22738;45.560;9.434;2022-08-01T05:16:51;4.25;;;1.98;;
36787;SDS011;22738;45.560;9.434;2022-08-01T05:23:32;4.28;;;2.40;;
36787;SDS011;22738;45.560;9.434;2022-08-01T05:30:13;7.20;;;3.00;;
36787;SDS011;22738;45.560;9.434;2022-08-01T05:36:54;10.95;;;3.45;;
36787;SDS011;22738;45.560;9.434;2022-08-01T05:43:35;7.80;;;3.50;;
36787;SDS011;22738;45.560;9.434;2022-08-01T05:50:17;8.38;;;2.90;;
36787;SDS011;22738;45.560;9.434;2022-08-01T05:56:58;6.20;;;3.15;;
36787;SDS011;22738;45.560;9.434;2022-08-01T06:03:42;7.60;;;3.05;;
36787;SDS011;22738;45.560;9.434;2022-08-01T06:10:23;7.32;;;2.75;;
36787;SDS011;22738;45.560;9.434;2022-08-01T06:17:04;3.90;;;2.07;;
36787;SDS011;22738;45.560;9.434;2022-08-01T06:23:45;6.25;;;2.20;;
36787;SDS011;22738;45.560;9.434;2022-08-01T06:30:27;4.75;;;1.58;;
36787;SDS011;22738;45.560;9.434;2022-08-01T06:37:08;4.50;;;1.02;;
36787;SDS011;22738;45.560;9.434;2022-08-01T06:43:49;1.85;;;1.45;;
36787;SDS011;22738;45.560;9.434;2022-08-01T06:50:30;2.47;;;1.45;;
36787;SDS011;22738;45.560;9.434;2022-08-01T06:57:11;2.50;;;1.40;;
36787;SDS011;22738;45.560;9.434;2022-08-01T07:03:52;3.50;;;1.48;;
36787;SDS011;22738;45.560;9.434;2022-08-01T07:10:34;3.15;;;1.50;;
36787;SDS011;22738;45.560;9.434;2022-08-01T07:17:15;7.40;;;1.83;;
36787;SDS011;22738;45.560;9.434;2022-08-01T07:23:56;4.65;;;2.20;;
36787;SDS011;22738;45.560;9.434;2022-08-01T07:30:37;2.95;;;1.73;;
36787;SDS011;22738;45.560;9.434;2022-08-01T07:37:18;7.93;;;1.50;;
36787;SDS011;22738;45.560;9.434;2022-08-01T07:43:59;4.82;;;1.75;;
36787;SDS011;22738;45.560;9.434;2022-08-01T07:50:40;5.97;;;1.60;;
36787;SDS011;22738;45.560;9.434;2022-08-01T08:04:02;4.18;;;2.30;;
36787;SDS011;22738;45.560;9.434;2022-08-01T08:10:43;7.17;;;2.60;;
36787;SDS011;22738;45.560;9.434;2022-08-01T08:17:25;6.80;;;2.20;;
36787;SDS011;22738;45.560;9.434;2022-08-01T08:24:16;7.57;;;2.33;;
36787;SDS011;22738;45.560;9.434;2022-08-01T08:31:00;6.63;;;2.03;;
36787;SDS011;22738;45.560;9.434;2022-08-01T08:37:41;9.57;;;2.58;;
36787;SDS011;22738;45.560;9.434;2022-08-01T08:44:23;4.70;;;2.35;;
36787;SDS011;22738;45.560;9.434;2022-08-01T08:51:04;4.93;;;2.40;;
36787;SDS011;22738;45.560;9.434;2022-08-01T08:57:46;6.10;;;2.30;;
36787;SDS011;22738;45.560;9.434;2022-08-01T09:04:28;4.57;;;2.10;;
36787;SDS011;22738;45.560;9.434;2022-08-01T09:11:09;7.03;;;2.40;;
36787;SDS011;22738;45.560;9.434;2022-08-01T09:17:50;4.25;;;2.58;;
36787;SDS011;22738;45.560;9.434;2022-08-01T09:24:32;5.28;;;2.20;;
36787;SDS011;22738;45.560;9.434;2022-08-01T09:31:14;3.90;;;2.58;;
36787;SDS011;22738;45.560;9.434;2022-08-01T09:38:14;7.43;;;2.45;;
36787;SDS011;22738;45.560;9.434;2022-08-01T09:45:00;10.13;;;3.42;;
36787;SDS011;22738;45.560;9.434;2022-08-01T09:51:42;3.97;;;2.22;;
36787;SDS011;22738;45.560;9.434;2022-08-01T09:58:23;5.68;;;2.42;;
36787;SDS011;22738;45.560;9.434;2022-08-01T10:05:05;4.18;;;2.58;;
36787;SDS011;22738;45.560;9.434;2022-08-01T10:11:48;5.40;;;2.78;;
36787;SDS011;22738;45.560;9.434;2022-08-01T10:18:30;3.85;;;2.47;;
36787;SDS011;22738;45.560;9.434;2022-08-01T10:25:13;4.82;;;2.35;;
36787;SDS011;22738;45.560;9.434;2022-08-01T10:31:58;4.28;;;2.15;;
36787;SDS011;22738;45.560;9.434;2022-08-01T10:38:39;4.53;;;2.70;;
36787;SDS011;22738;45.560;9.434;2022-08-01T10:45:21;7.13;;;2.70;;
36787;SDS011;22738;45.560;9.434;2022-08-01T10:52:03;10.33;;;3.03;;
36787;SDS011;22738;45.560;9.434;2022-08-01T10:58:45;3.28;;;2.08;;
36787;SDS011;22738;45.560;9.434;2022-08-01T11:05:28;5.85;;;2.33;;
36787;SDS011;22738;45.560;9.434;2022-08-01T11:12:15;2.65;;;1.95;;
36787;SDS011;22738;45.560;9.434;2022-08-01T11:18:58;3.40;;;2.00;;
36787;SDS011;22738;45.560;9.434;2022-08-01T11:32:23;3.23;;;2.20;;
36787;SDS011;22738;45.560;9.434;2022-08-01T11:45:47;4.55;;;2.50;;
36787;SDS011;22738;45.560;9.434;2022-08-01T11:52:33;5.10;;;2.15;;
36787;SDS011;22738;45.560;9.434;2022-08-01T11:59:16;2.30;;;1.73;;
36787;SDS011;22738;45.560;9.434;2022-08-01T12:05:57;2.95;;;1.70;;
36787;SDS011;22738;45.560;9.434;2022-08-01T12:12:43;1.95;;;1.70;;
36787;SDS011;22738;45.560;9.434;2022-08-01T12:19:26;3.85;;;2.15;;
36787;SDS011;22738;45.560;9.434;2022-08-01T12:26:08;3.60;;;1.88;;
36787;SDS011;22738;45.560;9.434;2022-08-01T12:32:49;7.72;;;2.28;;
36787;SDS011;22738;45.560;9.434;2022-08-01T12:39:31;3.87;;;2.17;;
36787;SDS011;22738;45.560;9.434;2022-08-01T12:46:13;6.53;;;1.83;;
36787;SDS011;22738;45.560;9.434;2022-08-01T12:52:57;1.75;;;1.60;;
36787;SDS011;22738;45.560;9.434;2022-08-01T12:59:39;2.55;;;1.80;;
36787;SDS011;22738;45.560;9.434;2022-08-01T13:06:20;5.47;;;2.40;;
36787;SDS011;22738;45.560;9.434;2022-08-01T13:13:02;4.78;;;1.90;;
36787;SDS011;22738;45.560;9.434;2022-08-01T13:19:44;4.88;;;1.70;;
36787;SDS011;22738;45.560;9.434;2022-08-01T13:33:22;2.05;;;1.50;;
36787;SDS011;22738;45.560;9.434;2022-08-01T13:40:05;1.60;;;1.35;;
36787;SDS011;22738;45.560;9.434;2022-08-01T13:46:47;4.10;;;1.27;;
36787;SDS011;22738;45.560;9.434;2022-08-01T13:53:29;2.38;;;1.10;;
36787;SDS011;22738;45.560;9.434;2022-08-01T14:00:10;2.60;;;1.08;;
36787;SDS011;22738;45.560;9.434;2022-08-01T14:06:55;2.78;;;1.40;;
36787;SDS011;22738;45.560;9.434;2022-08-01T14:13:36;2.55;;;1.35;;
36787;SDS011;22738;45.560;9.434;2022-08-01T14:20:19;4.55;;;1.38;;
36787;SDS011;22738;45.560;9.434;2022-08-01T14:27:00;1.88;;;1.40;;
36787;SDS011;22738;45.560;9.434;2022-08-01T14:33:42;2.13;;;1.60;;
36787;SDS011;22738;45.560;9.434;2022-08-01T14:40:23;3.20;;;1.58;;
36787;SDS011;22738;45.560;9.434;2022-08-01T14:47:04;4.50;;;1.85;;
36787;SDS011;22738;45.560;9.434;2022-08-01T14:53:46;9.38;;;2.30;;
36787;SDS011;22738;45.560;9.434;2022-08-01T15:00:28;12.88;;;2.35;;
36787;SDS011;22738;45.560;9.434;2022-08-01T15:07:09;2.00;;;1.20;;
36787;SDS011;22738;45.560;9.434;2022-08-01T15:13:51;2.65;;;1.52;;
36787;SDS011;22738;45.560;9.434;2022-08-01T15:20:52;3.78;;;1.70;;
36787;SDS011;22738;45.560;9.434;2022-08-01T15:27:35;7.95;;;1.60;;
36787;SDS011;22738;45.560;9.434;2022-08-01T15:34:17;4.55;;;1.58;;
36787;SDS011;22738;45.560;9.434;2022-08-01T15:40:58;6.65;;;2.15;;
36787;SDS011;22738;45.560;9.434;2022-08-01T15:47:40;24.17;;;3.20;;
36787;SDS011;22738;45.560;9.434;2022-08-01T15:54:22;5.70;;;1.55;;
36787;SDS011;22738;45.560;9.434;2022-08-01T16:01:03;19.73;;;2.70;;
36787;SDS011;22738;45.560;9.434;2022-08-01T16:07:45;1.77;;;1.10;;
36787;SDS011;22738;45.560;9.434;2022-08-01T16:14:26;1.85;;;1.10;;
36787;SDS011;22738;45.560;9.434;2022-08-01T16:21:07;2.53;;;1.20;;
36787;SDS011;22738;45.560;9.434;2022-08-01T16:27:51;2.55;;;1.00;;
36787;SDS011;22738;45.560;9.434;2022-08-01T16:34:32;2.00;;;1.10;;
36787;SDS011;22738;45.560;9.434;2022-08-01T16:41:14;1.95;;;1.20;;
36787;SDS011;22738;45.560;9.434;2022-08-01T16:47:55;1.25;;;1.15;;
36787;SDS011;22738;45.560;9.434;2022-08-01T16:54:38;1.77;;;1.20;;
36787;SDS011;22738;45.560;9.434;2022-08-01T17:01:19;1.27;;;1.10;;
36787;SDS011;22738;45.560;9.434;2022-08-01T17:08:00;5.13;;;1.20;;
36787;SDS011;22738;45.560;9.434;2022-08-01T17:14:41;1.63;;;1.27;;
36787;SDS011;22738;45.560;9.434;2022-08-01T17:21:22;1.77;;;0.95;;
36787;SDS011;22738;45.560;9.434;2022-08-01T17:28:03;1.70;;;1.30;;
36787;SDS011;22738;45.560;9.434;2022-08-01T17:34:45;2.22;;;0.90;;
36787;SDS011;22738;45.560;9.434;2022-08-01T17:41:26;1.73;;;1.10;;
36787;SDS011;22738;45.560;9.434;2022-08-01T17:48:07;2.63;;;1.00;;
36787;SDS011;22738;45.560;9.434;2022-08-01T17:54:55;1.15;;;0.90;;
36787;SDS011;22738;45.560;9.434;2022-08-01T18:01:37;1.25;;;0.68;;
36787;SDS011;22738;45.560;9.434;2022-08-01T18:08:18;1.50;;;1.20;;
36787;SDS011;22738;45.560;9.434;2022-08-01T18:14:59;2.38;;;1.88;;
36787;SDS011;22738;45.560;9.434;2022-08-01T18:21:49;3.25;;;1.63;;
36787;SDS011;22738;45.560;9.434;2022-08-01T18:28:31;2.17;;;1.20;;
36787;SDS011;22738;45.560;9.434;2022-08-01T18:35:12;2.25;;;1.52;;
36787;SDS011;22738;45.560;9.434;2022-08-01T18:41:53;2.08;;;1.33;;
36787;SDS011;22738;45.560;9.434;2022-08-01T18:48:36;1.83;;;1.30;;
36787;SDS011;22738;45.560;9.434;2022-08-01T18:55:19;4.13;;;1.58;;
36787;SDS011;22738;45.560;9.434;2022-08-01T19:02:00;2.80;;;1.40;;
36787;SDS011;22738;45.560;9.434;2022-08-01T19:08:41;2.83;;;1.45;;
36787;SDS011;22738;45.560;9.434;2022-08-01T19:15:24;1.70;;;1.17;;
36787;SDS011;22738;45.560;9.434;2022-08-01T19:22:05;1.70;;;1.20;;
36787;SDS011;22738;45.560;9.434;2022-08-01T19:28:48;2.00;;;1.35;;
36787;SDS011;22738;45.560;9.434;2022-08-01T19:35:32;1.52;;;1.42;;
36787;SDS011;22738;45.560;9.434;2022-08-01T19:42:13;2.47;;;1.35;;
36787;SDS011;22738;45.560;9.434;2022-08-01T19:48:54;1.75;;;1.30;;
36787;SDS011;22738;45.560;9.434;2022-08-01T19:55:36;2.08;;;1.40;;
36787;SDS011;22738;45.560;9.434;2022-08-01T20:08:59;2.13;;;1.35;;
36787;SDS011;22738;45.560;9.434;2022-08-01T20:15:42;3.25;;;1.85;;
36787;SDS011;22738;45.560;9.434;2022-08-01T20:22:24;2.73;;;2.10;;
36787;SDS011;22738;45.560;9.434;2022-08-01T20:29:13;3.63;;;1.58;;
36787;SDS011;22738;45.560;9.434;2022-08-01T20:35:56;2.50;;;1.95;;
36787;SDS011;22738;45.560;9.434;2022-08-01T20:42:38;3.22;;;1.85;;
36787;SDS011;22738;45.560;9.434;2022-08-01T20:49:19;3.08;;;2.03;;
36787;SDS011;22738;45.560;9.434;2022-08-01T20:56:03;2.80;;;1.98;;
36787;SDS011;22738;45.560;9.434;2022-08-01T21:02:49;2.85;;;1.85;;
36787;SDS011;22738;45.560;9.434;2022-08-01T21:09:44;2.80;;;1.92;;
36787;SDS011;22738;45.560;9.434;2022-08-01T21:16:29;3.75;;;2.10;;
36787;SDS011;22738;45.560;9.434;2022-08-01T21:30:07;3.50;;;2.00;;
36787;SDS011;22738;45.560;9.434;2022-08-01T21:36:49;7.97;;;2.30;;
36787;SDS011;22738;45.560;9.434;2022-08-01T21:43:33;3.33;;;1.95;;
36787;SDS011;22738;45.560;9.434;2022-08-01T21:50:15;3.13;;;2.17;;
36787;SDS011;22738;45.560;9.434;2022-08-01T21:57:09;3.70;;;2.40;;
36787;SDS011;22738;45.560;9.434;2022-08-01T22:03:55;4.15;;;2.28;;
36787;SDS011;22738;45.560;9.434;2022-08-01T22:10:42;3.58;;;2.38;;
36787;SDS011;22738;45.560;9.434;2022-08-01T22:17:23;3.30;;;2.30;;
36787;SDS011;22738;45.560;9.434;2022-08-01T22:24:05;3.05;;;2.03;;
36787;SDS011;22738;45.560;9.434;2022-08-01T22:30:47;3.42;;;2.30;;
36787;SDS011;22738;45.560;9.434;2022-08-01T22:44:12;3.13;;;2.13;;
36787;SDS011;22738;45.560;9.434;2022-08-01T23:11:19;5.57;;;2.10;;
36787;SDS011;22738;45.560;9.434;2022-08-01T23:18:03;2.72;;;2.00;;
36787;SDS011;22738;45.560;9.434;2022-08-01T23:24:45;3.53;;;2.07;;
36787;SDS011;22738;45.560;9.434;2022-08-01T23:31:27;6.05;;;3.03;;
36787;SDS011;22738;45.560;9.434;2022-08-01T23:38:09;4.35;;;2.15;;
36787;SDS011;22738;45.560;9.434;2022-08-01T23:44:50;2.50;;;1.95;;
36787;SDS011;22738;45.560;9.434;2022-08-01T23:51:32;2.95;;;2.08;;
36787;SDS011;22738;45.560;9.434;2022-08-01T23:58:13;5.15;;;1.83;;
